createdAt,value
2023-02-27T00:01:47.444Z,-2.02
2023-02-27T00:04:52.386Z,-1.97
2023-02-27T00:07:58.813Z,-2.01
2023-02-27T00:11:07.825Z,-2.01
2023-02-27T00:14:14.137Z,-1.98
2023-02-27T00:17:20.779Z,-2.00
2023-02-27T00:20:27.861Z,-1.86
2023-02-27T00:23:35.159Z,-1.83
2023-02-27T00:26:42.042Z,-1.71
2023-02-27T00:29:52.124Z,-1.58
2023-02-27T00:32:58.980Z,-1.48
2023-02-27T00:36:06.584Z,-1.43
2023-02-27T00:39:14.672Z,-1.39
2023-02-27T00:42:20.634Z,-1.43
2023-02-27T00:45:28.362Z,-1.32
2023-02-27T00:48:35.740Z,-1.30
2023-02-27T00:51:43.122Z,-1.25
2023-02-27T00:54:50.033Z,-1.18
2023-02-27T00:57:57.747Z,-1.19
2023-02-27T01:01:02.399Z,-1.24
2023-02-27T01:04:07.062Z,-1.25
2023-02-27T01:07:11.584Z,-1.25
2023-02-27T01:10:15.812Z,-1.14
2023-02-27T01:13:19.420Z,-1.07
2023-02-27T01:16:23.593Z,-1.01
2023-02-27T01:19:28.183Z,-0.87
2023-02-27T01:22:34.008Z,-0.67
2023-02-27T01:25:37.145Z,-0.57
2023-02-27T01:28:42.441Z,-0.53
2023-02-27T01:31:49.641Z,-0.39
2023-02-27T01:34:53.238Z,-0.25
2023-02-27T01:37:58.654Z,-0.02
2023-02-27T01:41:08.258Z,-0.10
2023-02-27T01:44:16.258Z,-0.11
2023-02-27T01:47:20.553Z,-0.12
2023-02-27T01:50:25.482Z,0.06
2023-02-27T01:53:31.767Z,0.06
2023-02-27T01:56:35.257Z,0.26
2023-02-27T01:59:42.502Z,0.29
2023-02-27T02:02:57.614Z,0.47
2023-02-27T02:06:04.010Z,0.50
2023-02-27T02:09:09.398Z,0.64
2023-02-27T02:12:15.876Z,0.47
2023-02-27T02:15:22.495Z,0.51
2023-02-27T02:18:46.181Z,0.71
2023-02-27T02:22:27.490Z,0.99
2023-02-27T02:25:52.159Z,1.10
2023-02-27T02:29:31.281Z,1.34
2023-02-27T02:33:08.106Z,1.51
2023-02-27T02:36:34.881Z,1.52
2023-02-27T02:39:57.094Z,1.62
2023-02-27T02:43:21.050Z,1.51
2023-02-27T02:46:31.596Z,1.30
2023-02-27T02:49:36.742Z,1.19
2023-02-27T02:53:11.052Z,1.20
2023-02-27T02:56:35.762Z,1.27
2023-02-27T02:59:50.271Z,1.09
2023-02-27T03:03:00.491Z,0.97
2023-02-27T03:06:33.687Z,1.20
2023-02-27T03:09:43.875Z,0.91
2023-02-27T03:13:16.706Z,0.57
2023-02-27T03:16:20.568Z,0.34
2023-02-27T03:19:29.782Z,0.21
2023-02-27T03:22:37.623Z,0.36
2023-02-27T03:25:46.677Z,0.50
2023-02-27T03:29:18.148Z,0.92
2023-02-27T03:32:43.190Z,1.00
2023-02-27T03:36:13.635Z,1.29
2023-02-27T03:39:31.351Z,1.41
2023-02-27T03:43:03.517Z,1.47
2023-02-27T03:46:19.136Z,2.08
2023-02-27T03:49:25.523Z,2.44
2023-02-27T03:52:31.166Z,2.53
2023-02-27T03:55:38.615Z,2.47
2023-02-27T03:58:42.263Z,2.51
2023-02-27T04:01:46.265Z,2.03
2023-02-27T04:04:50.033Z,1.39
2023-02-27T04:08:20.155Z,1.20
2023-02-27T04:11:42.867Z,1.34
2023-02-27T04:14:58.693Z,1.48
2023-02-27T04:18:42.192Z,1.96
2023-02-27T04:22:08.570Z,2.23
2023-02-27T04:25:46.703Z,1.99
2023-02-27T04:28:57.347Z,2.13
2023-02-27T04:32:03.209Z,1.96
2023-02-27T04:35:38.502Z,1.54
2023-02-27T04:38:48.657Z,1.40
2023-02-27T04:41:58.237Z,1.07
2023-02-27T04:45:05.670Z,0.61
2023-02-27T04:48:29.589Z,0.33
2023-02-27T04:51:57.566Z,0.05
2023-02-27T04:55:07.200Z,-0.17
2023-02-27T04:58:25.788Z,-0.02
2023-02-27T05:01:58.526Z,0.41
2023-02-27T05:05:07.160Z,0.76
2023-02-27T05:08:24.310Z,1.10
2023-02-27T05:11:35.344Z,1.50
2023-02-27T05:14:50.219Z,1.43
2023-02-27T05:18:00.510Z,1.40
2023-02-27T05:21:12.931Z,1.57
2023-02-27T05:25:07.757Z,1.41
2023-02-27T05:28:38.843Z,1.07
2023-02-27T05:31:51.494Z,1.20
2023-02-27T05:34:57.670Z,1.15
2023-02-27T05:38:13.554Z,1.10
2023-02-27T05:41:48.583Z,1.17
2023-02-27T05:45:02.676Z,1.26
2023-02-27T05:48:15.212Z,1.17
2023-02-27T05:51:22.207Z,1.23
2023-02-27T05:55:09.029Z,1.47
2023-02-27T05:58:20.528Z,1.68
2023-02-27T06:01:25.493Z,1.83
2023-02-27T06:04:29.522Z,1.91
2023-02-27T06:07:33.321Z,1.83
2023-02-27T06:10:37.687Z,1.96
2023-02-27T06:13:42.341Z,1.88
2023-02-27T06:16:46.151Z,1.79
2023-02-27T06:19:50.425Z,1.61
2023-02-27T06:22:53.716Z,1.58
2023-02-27T06:25:57.623Z,1.50
2023-02-27T06:29:01.206Z,1.50
2023-02-27T06:32:04.282Z,1.30
2023-02-27T06:35:10.577Z,1.22
2023-02-27T06:38:14.656Z,1.17
2023-02-27T06:41:17.808Z,1.02
2023-02-27T06:44:21.217Z,0.84
2023-02-27T06:47:24.466Z,0.65
2023-02-27T06:50:28.284Z,0.61
2023-02-27T06:53:31.909Z,0.55
2023-02-27T06:56:35.659Z,0.37
2023-02-27T06:59:38.847Z,0.20
2023-02-27T07:02:43.170Z,0.20
2023-02-27T07:05:46.212Z,0.11
2023-02-27T07:09:02.086Z,-0.01
2023-02-27T07:12:10.736Z,0.09
2023-02-27T07:15:14.754Z,0.06
2023-02-27T07:18:17.970Z,0.07
2023-02-27T07:21:21.866Z,-0.11
2023-02-27T07:24:25.614Z,-0.08
2023-02-27T07:27:29.016Z,-0.07
2023-02-27T07:30:32.820Z,-0.08
2023-02-27T07:33:36.417Z,-0.01
2023-02-27T07:36:41.008Z,-0.05
2023-02-27T07:39:45.635Z,-0.12
2023-02-27T07:42:53.224Z,0.03
2023-02-27T07:45:58.387Z,0.20
2023-02-27T07:49:02.725Z,0.40
2023-02-27T07:52:08.183Z,0.72
2023-02-27T07:55:13.573Z,1.12
2023-02-27T07:58:17.437Z,1.09
2023-02-27T08:01:21.790Z,0.91
2023-02-27T08:04:26.849Z,1.06
2023-02-27T08:07:32.091Z,1.23
2023-02-27T08:10:39.683Z,1.52
2023-02-27T08:13:59.721Z,1.47
2023-02-27T08:17:04.218Z,1.58
2023-02-27T08:20:12.332Z,1.29
2023-02-27T08:23:15.899Z,1.16
2023-02-27T08:26:21.156Z,0.72
2023-02-27T08:29:25.442Z,0.78
2023-02-27T08:32:31.089Z,1.24
2023-02-27T08:35:35.595Z,1.61
2023-02-27T08:38:39.922Z,1.57
2023-02-27T08:41:43.897Z,1.12
2023-02-27T08:44:49.026Z,0.99
2023-02-27T08:47:53.428Z,1.54
2023-02-27T08:50:58.685Z,1.83
2023-02-27T08:54:02.704Z,2.47
2023-02-27T08:57:07.865Z,2.65
2023-02-27T09:00:15.206Z,2.93
2023-02-27T09:03:19.088Z,3.06
2023-02-27T09:06:23.950Z,3.26
2023-02-27T09:09:28.781Z,2.98
2023-02-27T09:12:32.894Z,2.73
2023-02-27T09:15:38.566Z,2.78
2023-02-27T09:18:42.599Z,2.62
2023-02-27T09:21:47.506Z,2.60
2023-02-27T09:24:51.766Z,2.36
2023-02-27T09:27:57.918Z,2.05
2023-02-27T09:31:03.571Z,2.20
2023-02-27T09:34:08.090Z,2.02
2023-02-27T09:37:11.923Z,1.77
2023-02-27T09:40:33.002Z,1.70
2023-02-27T09:43:49.654Z,1.44
2023-02-27T09:46:55.504Z,1.12
2023-02-27T09:50:08.005Z,1.15
2023-02-27T09:53:24.314Z,1.09
2023-02-27T09:56:33.235Z,0.64
2023-02-27T09:59:58.611Z,-0.10
2023-02-27T10:03:29.083Z,-0.43
2023-02-27T10:06:49.422Z,-0.79
2023-02-27T10:10:18.091Z,-1.28
2023-02-27T10:13:58.724Z,-1.62
2023-02-27T10:17:06.375Z,-1.86
2023-02-27T10:20:21.288Z,-2.04
2023-02-27T10:23:31.995Z,-2.04
2023-02-27T10:26:42.433Z,-2.14
2023-02-27T10:29:46.491Z,-2.38
2023-02-27T10:32:55.413Z,-2.77
2023-02-27T10:35:59.805Z,-2.97
2023-02-27T10:39:08.185Z,-3.12
2023-02-27T10:42:16.287Z,-3.25
2023-02-27T10:45:19.389Z,-3.24
2023-02-27T10:48:24.048Z,-3.31
2023-02-27T10:51:35.536Z,-3.30
2023-02-27T10:54:39.519Z,-3.31
2023-02-27T10:57:46.534Z,-3.35
2023-02-27T11:01:02.476Z,-3.50
2023-02-27T11:04:06.686Z,-3.71
2023-02-27T11:07:15.277Z,-3.76
2023-02-27T11:10:27.588Z,-3.79
2023-02-27T11:13:41.111Z,-3.86
2023-02-27T11:16:53.252Z,-3.84
2023-02-27T11:19:58.746Z,-3.86
2023-02-27T11:23:17.397Z,-3.98
2023-02-27T11:26:37.110Z,-4.02
2023-02-27T11:30:03.561Z,-4.04
2023-02-27T11:33:20.394Z,-4.09
2023-02-27T11:36:42.003Z,-4.07
2023-02-27T11:40:00.282Z,-4.08
2023-02-27T11:43:33.641Z,-4.11
2023-02-27T11:46:46.961Z,-4.19
2023-02-27T11:49:56.145Z,-4.44
2023-02-27T11:53:18.009Z,-4.60
2023-02-27T11:56:36.024Z,-4.69
2023-02-27T11:59:42.756Z,-4.80
2023-02-27T12:02:56.278Z,-5.01
2023-02-27T12:06:08.019Z,-5.16
2023-02-27T12:09:23.098Z,-5.19
2023-02-27T12:12:50.638Z,-5.33
2023-02-27T12:15:58.316Z,-5.43
2023-02-27T12:19:38.449Z,-5.44
2023-02-27T12:22:47.646Z,-5.59
2023-02-27T12:26:02.441Z,-5.56
2023-02-27T12:29:32.233Z,-5.64
2023-02-27T12:32:49.885Z,-5.81
2023-02-27T12:36:04.795Z,-5.95
2023-02-27T12:39:26.591Z,-6.04
2023-02-27T12:43:10.833Z,-6.08
2023-02-27T12:46:29.030Z,-6.17
2023-02-27T12:49:42.745Z,-6.19
2023-02-27T12:52:53.217Z,-6.19
2023-02-27T12:56:12.864Z,-6.24
2023-02-27T12:59:48.393Z,-6.28
2023-02-27T13:03:14.516Z,-6.29
2023-02-27T13:06:21.434Z,-6.36
2023-02-27T13:09:37.785Z,-6.39
2023-02-27T13:13:03.910Z,-6.40
2023-02-27T13:16:43.881Z,-6.33
2023-02-27T13:19:51.104Z,-6.28
2023-02-27T13:22:55.070Z,-6.28
2023-02-27T13:26:01.213Z,-6.30
2023-02-27T13:29:07.312Z,-6.28
2023-02-27T13:32:44.015Z,-6.36
2023-02-27T13:35:48.967Z,-6.40
2023-02-27T13:38:56.400Z,-6.46
2023-02-27T13:42:00.979Z,-6.52
2023-02-27T13:45:26.146Z,-6.60
2023-02-27T13:48:35.950Z,-6.53
2023-02-27T13:51:41.799Z,-6.52
2023-02-27T13:54:45.904Z,-6.56
2023-02-27T13:57:48.933Z,-6.59
2023-02-27T14:01:00.080Z,-6.62
2023-02-27T14:04:07.284Z,-6.73
2023-02-27T14:07:19.365Z,-6.72
2023-02-27T14:10:27.244Z,-6.70
2023-02-27T14:13:46.637Z,-6.69
2023-02-27T14:16:50.764Z,-6.67
2023-02-27T14:19:57.445Z,-6.63
2023-02-27T14:23:33.854Z,-6.66
2023-02-27T14:26:40.910Z,-6.80
2023-02-27T14:29:48.441Z,-6.98
2023-02-27T14:32:57.939Z,-6.95
2023-02-27T14:36:08.645Z,-6.90
2023-02-27T14:39:29.610Z,-6.93
2023-02-27T14:42:47.583Z,-7.01
2023-02-27T14:45:51.044Z,-6.94
2023-02-27T14:49:03.859Z,-6.98
2023-02-27T14:52:25.694Z,-7.01
2023-02-27T14:55:32.854Z,-6.97
2023-02-27T14:58:36.228Z,-6.95
2023-02-27T15:01:39.270Z,-7.09
2023-02-27T15:04:43.239Z,-7.19
2023-02-27T15:07:48.829Z,-7.25
2023-02-27T15:10:54.214Z,-7.15
2023-02-27T15:14:03.806Z,-7.18
2023-02-27T15:17:24.890Z,-7.33
2023-02-27T15:20:34.583Z,-7.53
2023-02-27T15:23:37.928Z,-7.64
2023-02-27T15:26:42.345Z,-7.63
2023-02-27T15:29:53.050Z,-7.63
2023-02-27T15:32:56.910Z,-7.54
2023-02-27T15:36:02.872Z,-7.59
2023-02-27T15:39:17.845Z,-7.56
2023-02-27T15:42:31.727Z,-7.38
2023-02-27T15:50:44.982Z,-7.16
2023-02-27T15:54:00.363Z,-7.08
2023-02-27T15:57:09.492Z,-7.05
2023-02-27T16:00:18.319Z,-7.12
2023-02-27T16:03:26.749Z,-7.15
2023-02-27T16:06:37.873Z,-7.16
2023-02-27T16:09:49.225Z,-7.16
2023-02-27T16:12:56.697Z,-7.22
2023-02-27T16:16:04.284Z,-7.33
2023-02-27T16:19:30.062Z,-7.35
2023-02-27T16:22:37.791Z,-7.39
2023-02-27T16:25:47.660Z,-7.52
2023-02-27T16:29:08.999Z,-7.67
2023-02-27T16:32:32.704Z,-7.67
2023-02-27T16:35:40.685Z,-7.66
2023-02-27T16:38:44.681Z,-7.70
2023-02-27T16:41:49.727Z,-7.69
2023-02-27T16:44:54.156Z,-7.79
2023-02-27T16:48:02.230Z,-7.70
2023-02-27T16:51:12.324Z,-7.77
2023-02-27T16:54:18.686Z,-7.77
2023-02-27T16:57:29.253Z,-7.87
2023-02-27T17:00:35.221Z,-7.93
2023-02-27T17:03:40.232Z,-7.99
2023-02-27T17:06:45.804Z,-8.07
2023-02-27T17:09:55.871Z,-8.28
2023-02-27T17:13:06.017Z,-8.30
2023-02-27T17:16:15.122Z,-8.30
2023-02-27T17:19:26.140Z,-8.45
2023-02-27T17:22:37.018Z,-8.42
2023-02-27T17:25:44.715Z,-8.29
2023-02-27T17:28:54.836Z,-8.24
2023-02-27T17:32:04.391Z,-8.22
2023-02-27T17:35:12.881Z,-8.32
2023-02-27T17:38:21.565Z,-8.25
2023-02-27T17:41:29.486Z,-8.35
2023-02-27T17:44:39.109Z,-8.39
2023-02-27T17:47:46.533Z,-8.35
2023-02-27T17:50:55.893Z,-8.38
2023-02-27T17:54:09.373Z,-8.50
2023-02-27T17:57:19.018Z,-8.50
2023-02-27T18:00:26.762Z,-8.49
2023-02-27T18:03:37.493Z,-8.47
2023-02-27T18:06:46.732Z,-8.40
2023-02-27T18:09:54.830Z,-8.28
2023-02-27T18:13:05.585Z,-8.18
2023-02-27T18:16:14.353Z,-8.21
2023-02-27T18:19:26.735Z,-8.28
2023-02-27T18:22:35.362Z,-8.46
2023-02-27T18:25:43.188Z,-8.53
2023-02-27T18:28:54.461Z,-8.64
2023-02-27T18:32:03.570Z,-8.70
2023-02-27T18:35:12.420Z,-8.79
2023-02-27T18:38:21.180Z,-8.84
2023-02-27T18:41:29.768Z,-8.91
2023-02-27T18:44:37.158Z,-9.05
2023-02-27T18:47:44.755Z,-8.98
2023-02-27T18:50:52.275Z,-8.94
2023-02-27T18:53:59.542Z,-8.97
2023-02-27T18:57:08.066Z,-8.90
2023-02-27T19:00:17.200Z,-8.87
2023-02-27T19:03:25.071Z,-8.94
2023-02-27T19:06:32.596Z,-8.91
2023-02-27T19:09:39.574Z,-8.91
2023-02-27T19:12:48.687Z,-8.93
2023-02-27T19:15:56.184Z,-8.93
2023-02-27T19:19:03.297Z,-8.88
2023-02-27T19:22:09.457Z,-8.87
2023-02-27T19:25:14.685Z,-8.81
2023-02-27T19:28:20.159Z,-8.80
2023-02-27T19:31:27.483Z,-8.85
2023-02-27T19:34:33.819Z,-8.80
2023-02-27T19:37:41.830Z,-8.80
2023-02-27T19:40:47.580Z,-8.68
2023-02-27T19:43:53.557Z,-8.60
2023-02-27T19:47:00.170Z,-8.54
2023-02-27T19:50:07.015Z,-8.50
2023-02-27T19:53:12.649Z,-8.57
2023-02-27T19:56:23.155Z,-8.63
2023-02-27T19:59:29.403Z,-8.64
2023-02-27T20:02:36.676Z,-8.68
2023-02-27T20:05:47.395Z,-8.63
2023-02-27T20:08:54.900Z,-8.58
2023-02-27T20:12:05.198Z,-8.79
2023-02-27T20:15:15.362Z,-8.87
2023-02-27T20:18:26.008Z,-9.01
2023-02-27T20:21:33.027Z,-9.12
2023-02-27T20:24:44.096Z,-9.14
2023-02-27T20:27:53.937Z,-9.08
2023-02-27T20:31:04.006Z,-9.12
2023-02-27T20:34:15.587Z,-9.29
2023-02-27T20:37:26.129Z,-9.35
2023-02-27T20:40:37.555Z,-9.43
2023-02-27T20:43:48.896Z,-9.50
2023-02-27T20:46:59.617Z,-9.59
2023-02-27T20:50:10.600Z,-9.67
2023-02-27T20:53:20.439Z,-9.70
2023-02-27T20:56:33.772Z,-9.67
2023-02-27T20:59:47.007Z,-9.71
2023-02-27T21:02:57.474Z,-9.71
2023-02-27T21:06:09.661Z,-9.73
2023-02-27T21:09:19.197Z,-9.75
2023-02-27T21:12:27.428Z,-9.82
2023-02-27T21:15:40.186Z,-9.81
2023-02-27T21:18:54.014Z,-9.87
2023-02-27T21:22:04.241Z,-9.91
2023-02-27T21:25:12.248Z,-10.01
2023-02-27T21:28:23.653Z,-10.09
2023-02-27T21:31:37.093Z,-10.21
2023-02-27T21:34:48.162Z,-10.24
2023-02-27T21:38:00.564Z,-10.32
2023-02-27T21:41:17.483Z,-10.39
2023-02-27T21:44:29.985Z,-10.45
2023-02-27T21:47:43.354Z,-10.52
2023-02-27T21:50:53.491Z,-10.54
2023-02-27T21:54:04.771Z,-10.60
2023-02-27T21:57:15.866Z,-10.61
2023-02-27T22:00:30.933Z,-10.77
2023-02-27T22:03:43.142Z,-10.85
2023-02-27T22:06:55.844Z,-10.84
2023-02-27T22:10:05.495Z,-10.87
2023-02-27T22:13:16.163Z,-10.91
2023-02-27T22:16:27.033Z,-10.97
2023-02-27T22:19:38.123Z,-11.00
2023-02-27T22:22:48.594Z,-11.07
2023-02-27T22:26:06.872Z,-11.08
2023-02-27T22:29:16.373Z,-11.11
2023-02-27T22:32:24.939Z,-11.18
2023-02-27T22:35:30.725Z,-11.19
2023-02-27T22:38:34.849Z,-11.16
2023-02-27T22:41:45.235Z,-11.23
2023-02-27T22:44:58.267Z,-11.32
2023-02-27T22:48:08.837Z,-11.40
2023-02-27T22:51:20.516Z,-11.46
2023-02-27T22:54:33.246Z,-11.47
2023-02-27T22:57:46.062Z,-11.46
2023-02-27T23:00:52.987Z,-11.46
2023-02-27T23:03:59.111Z,-11.46
2023-02-27T23:07:07.935Z,-11.50
2023-02-27T23:10:20.649Z,-11.44
2023-02-27T23:13:32.170Z,-11.39
2023-02-27T23:16:42.506Z,-11.40
2023-02-27T23:19:56.246Z,-11.43
2023-02-27T23:23:08.668Z,-11.39
2023-02-27T23:26:19.430Z,-11.38
2023-02-27T23:29:25.444Z,-11.32
2023-02-27T23:32:29.262Z,-11.33
2023-02-27T23:35:33.355Z,-11.28
2023-02-27T23:38:37.422Z,-11.25
2023-02-27T23:41:42.378Z,-11.26
2023-02-27T23:44:46.903Z,-11.07
2023-02-27T23:47:58.374Z,-11.12
2023-02-27T23:51:07.113Z,-11.08
2023-02-27T23:54:11.531Z,-11.10
2023-02-27T23:57:15.258Z,-11.11
